createdAt,value
2022-11-12T00:00:08.706Z,9.30
2022-11-12T00:02:35.191Z,9.30
2022-11-12T00:05:01.689Z,9.30
2022-11-12T00:07:28.272Z,9.30
2022-11-12T00:09:54.804Z,9.30
2022-11-12T00:12:21.294Z,9.30
2022-11-12T00:14:47.788Z,9.30
2022-11-12T00:17:14.315Z,9.30
2022-11-12T00:19:40.807Z,9.40
2022-11-12T00:22:07.339Z,9.40
2022-11-12T00:24:33.836Z,9.40
2022-11-12T00:27:00.426Z,9.40
2022-11-12T00:29:26.929Z,9.40
2022-11-12T00:31:53.415Z,9.40
2022-11-12T00:34:19.935Z,9.40
2022-11-12T00:36:46.434Z,9.40
2022-11-12T00:39:12.903Z,9.40
2022-11-12T00:41:39.393Z,9.40
2022-11-12T00:44:05.916Z,9.30
2022-11-12T00:46:32.450Z,9.30
2022-11-12T00:48:58.946Z,9.30
2022-11-12T00:51:25.435Z,9.30
2022-11-12T00:53:51.924Z,9.30
2022-11-12T00:56:18.437Z,9.30
2022-11-12T00:58:45.032Z,9.20
2022-11-12T01:01:11.551Z,9.20
2022-11-12T01:03:38.108Z,9.20
2022-11-12T01:06:04.628Z,9.20
2022-11-12T01:08:31.164Z,9.20
2022-11-12T01:10:57.672Z,9.20
2022-11-12T01:13:24.161Z,9.20
2022-11-12T01:15:50.636Z,9.20
2022-11-12T01:18:17.137Z,9.20
2022-11-12T01:20:43.630Z,9.20
2022-11-12T01:23:10.179Z,9.20
2022-11-12T01:25:36.641Z,9.20
2022-11-12T01:28:03.112Z,9.20
2022-11-12T01:30:29.629Z,9.20
2022-11-12T01:32:56.115Z,9.20
2022-11-12T01:35:22.673Z,9.20
2022-11-12T01:37:49.877Z,9.20
2022-11-12T01:40:16.725Z,9.20
2022-11-12T01:42:43.231Z,9.20
2022-11-12T01:45:09.707Z,9.20
2022-11-12T01:47:36.273Z,9.20
2022-11-12T01:50:02.775Z,9.20
2022-11-12T01:52:29.317Z,9.20
2022-11-12T01:54:55.790Z,9.10
2022-11-12T01:57:22.362Z,9.10
2022-11-12T01:59:48.936Z,9.10
2022-11-12T02:02:15.459Z,9.10
2022-11-12T02:04:41.965Z,9.00
2022-11-12T02:07:08.627Z,9.00
2022-11-12T02:09:35.147Z,9.10
2022-11-12T02:12:01.660Z,9.00
2022-11-12T02:14:28.172Z,9.10
2022-11-12T02:16:54.666Z,9.00
2022-11-12T02:19:21.133Z,9.00
2022-11-12T02:21:47.992Z,9.00
2022-11-12T02:24:15.597Z,9.00
2022-11-12T02:26:42.096Z,9.00
2022-11-12T02:29:08.583Z,9.00
2022-11-12T02:31:35.060Z,8.90
2022-11-12T02:34:01.541Z,9.00
2022-11-12T02:36:28.043Z,8.90
2022-11-12T02:38:54.632Z,8.90
2022-11-12T02:41:21.098Z,8.90
2022-11-12T02:43:47.632Z,8.90
2022-11-12T02:46:14.105Z,8.90
2022-11-12T02:48:40.656Z,8.80
2022-11-12T02:51:07.183Z,8.80
2022-11-12T02:53:34.008Z,8.90
2022-11-12T02:56:00.496Z,8.80
2022-11-12T02:58:27.325Z,8.80
2022-11-12T03:00:54.043Z,8.70
2022-11-12T03:03:20.587Z,8.70
2022-11-12T03:05:47.070Z,8.80
2022-11-12T03:08:13.594Z,8.80
2022-11-12T03:10:40.062Z,8.80
2022-11-12T03:13:06.590Z,8.70
2022-11-12T03:15:33.073Z,8.70
2022-11-12T03:17:59.614Z,8.70
2022-11-12T03:20:26.181Z,8.80
2022-11-12T03:22:52.671Z,8.80
2022-11-12T03:25:19.198Z,8.80
2022-11-12T03:27:45.717Z,8.80
2022-11-12T03:30:12.197Z,8.80
2022-11-12T03:32:38.701Z,8.80
2022-11-12T03:35:05.194Z,8.90
2022-11-12T03:37:31.805Z,8.90
2022-11-12T03:39:58.300Z,8.90
2022-11-12T03:42:24.771Z,8.90
2022-11-12T03:44:51.242Z,8.90
2022-11-12T03:47:17.789Z,8.90
2022-11-12T03:49:44.314Z,8.80
2022-11-12T03:52:10.811Z,8.80
2022-11-12T03:54:37.319Z,8.80
2022-11-12T03:57:04.340Z,8.80
2022-11-12T03:59:30.828Z,8.80
2022-11-12T04:01:57.375Z,8.90
2022-11-12T04:04:43.903Z,8.90
2022-11-12T04:07:28.943Z,8.80
2022-11-12T04:09:55.422Z,8.90
2022-11-12T04:12:40.559Z,8.90
2022-11-12T04:15:07.035Z,8.90
2022-11-12T04:17:52.403Z,8.90
2022-11-12T04:20:37.591Z,8.90
2022-11-12T04:23:04.112Z,8.90
2022-11-12T04:25:49.382Z,8.80
2022-11-12T04:28:15.898Z,8.80
2022-11-12T04:30:42.403Z,8.80
2022-11-12T04:33:08.955Z,8.80
2022-11-12T04:35:35.445Z,8.70
2022-11-12T04:38:01.995Z,8.70
2022-11-12T04:40:47.338Z,8.60
2022-11-12T04:43:32.474Z,8.60
2022-11-12T04:45:58.957Z,8.50
2022-11-12T04:48:26.004Z,8.50
2022-11-12T04:50:52.791Z,8.50
2022-11-12T04:53:19.342Z,8.50
2022-11-12T04:55:45.879Z,8.50
2022-11-12T04:58:12.374Z,8.50
2022-11-12T05:00:38.854Z,8.50
2022-11-12T05:03:05.383Z,8.50
2022-11-12T05:05:34.000Z,8.50
2022-11-12T05:08:00.862Z,8.50
2022-11-12T05:10:27.391Z,8.50
2022-11-12T05:12:53.878Z,8.50
2022-11-12T05:15:20.386Z,8.50
2022-11-12T05:17:46.931Z,8.50
2022-11-12T05:20:13.508Z,8.40
2022-11-12T05:22:45.865Z,8.50
2022-11-12T05:25:14.456Z,8.40
2022-11-12T05:27:40.977Z,8.40
2022-11-12T05:30:07.855Z,8.40
2022-11-12T05:32:34.408Z,8.40
2022-11-12T05:35:00.925Z,8.30
2022-11-12T05:37:27.438Z,8.30
2022-11-12T05:39:54.028Z,8.20
2022-11-12T05:42:20.575Z,8.20
2022-11-12T05:44:47.116Z,8.20
2022-11-12T05:47:13.700Z,8.20
2022-11-12T05:49:40.299Z,8.20
2022-11-12T05:52:06.788Z,8.20
2022-11-12T05:54:33.295Z,8.20
2022-11-12T05:56:59.817Z,8.20
2022-11-12T06:02:00.869Z,8.20
2022-11-12T06:04:27.789Z,8.20
2022-11-12T06:06:54.339Z,8.20
2022-11-12T06:09:20.845Z,8.20
2022-11-12T06:11:47.318Z,8.20
2022-11-12T06:14:13.803Z,8.20
2022-11-12T06:16:40.335Z,8.30
2022-11-12T06:19:06.888Z,8.30
2022-11-12T06:21:33.407Z,8.40
2022-11-12T06:24:00.075Z,8.40
2022-11-12T06:26:26.648Z,8.50
2022-11-12T06:28:53.196Z,8.50
2022-11-12T06:31:19.789Z,8.60
2022-11-12T06:33:46.306Z,8.60
2022-11-12T06:36:12.810Z,8.70
2022-11-12T06:38:39.925Z,8.70
2022-11-12T06:41:06.424Z,8.70
2022-11-12T06:43:32.998Z,8.70
2022-11-12T06:45:59.910Z,8.70
2022-11-12T06:48:26.582Z,8.80
2022-11-12T06:50:53.199Z,8.80
2022-11-12T06:53:19.692Z,8.80
2022-11-12T06:55:46.190Z,8.80
2022-11-12T06:58:12.681Z,8.80
2022-11-12T07:00:39.156Z,8.80
2022-11-12T07:03:05.636Z,8.80
2022-11-12T07:05:32.110Z,8.80
2022-11-12T07:07:58.667Z,8.80
2022-11-12T07:10:25.406Z,8.80
2022-11-12T07:12:53.571Z,8.80
2022-11-12T07:15:20.232Z,8.80
2022-11-12T07:17:46.775Z,8.80
2022-11-12T07:20:13.392Z,8.80
2022-11-12T07:22:39.909Z,8.80
2022-11-12T07:25:06.389Z,8.80
2022-11-12T07:27:32.875Z,8.90
2022-11-12T07:29:59.364Z,8.90
2022-11-12T07:32:25.922Z,9.00
2022-11-12T07:34:52.398Z,9.10
2022-11-12T07:37:18.872Z,9.10
2022-11-12T07:39:45.396Z,9.20
2022-11-12T07:42:11.902Z,9.30
2022-11-12T07:44:38.406Z,9.40
2022-11-12T07:47:04.875Z,9.40
2022-11-12T07:49:31.479Z,9.40
2022-11-12T07:51:58.071Z,9.50
2022-11-12T07:54:24.559Z,9.50
2022-11-12T07:56:51.067Z,9.50
2022-11-12T07:59:17.656Z,9.50
2022-11-12T08:01:45.278Z,9.60
2022-11-12T08:04:12.075Z,9.60
2022-11-12T08:06:38.763Z,9.70
2022-11-12T08:09:05.387Z,9.70
2022-11-12T08:11:31.866Z,9.80
2022-11-12T08:13:58.427Z,9.90
2022-11-12T08:16:24.921Z,9.90
2022-11-12T08:18:51.449Z,9.90
2022-11-12T08:21:17.942Z,9.90
2022-11-12T08:23:44.447Z,9.90
2022-11-12T08:26:10.938Z,9.90
2022-11-12T08:28:37.426Z,9.90
2022-11-12T08:31:04.334Z,9.90
2022-11-12T08:33:30.836Z,10.00
2022-11-12T08:35:57.329Z,10.10
2022-11-12T08:38:23.913Z,10.10
2022-11-12T08:40:50.454Z,10.20
2022-11-12T08:43:16.933Z,10.30
2022-11-12T08:45:43.476Z,10.40
2022-11-12T08:48:09.972Z,10.40
2022-11-12T08:50:36.492Z,10.50
2022-11-12T08:53:02.979Z,10.60
2022-11-12T08:55:29.563Z,10.70
2022-11-12T08:57:59.166Z,10.80
2022-11-12T09:00:25.760Z,10.90
2022-11-12T09:02:52.243Z,10.90
2022-11-12T09:05:18.726Z,11.00
2022-11-12T09:07:50.290Z,11.10
2022-11-12T09:10:17.062Z,11.20
2022-11-12T09:12:43.535Z,11.40
2022-11-12T09:15:36.922Z,11.60
2022-11-12T09:17:56.748Z,11.80
2022-11-12T09:20:23.296Z,12.00
2022-11-12T09:22:49.861Z,12.10
2022-11-12T09:25:16.455Z,12.20
2022-11-12T09:27:48.129Z,12.20
2022-11-12T09:30:14.993Z,12.20
2022-11-12T09:32:41.510Z,12.20
2022-11-12T09:35:07.977Z,12.30
2022-11-12T09:37:34.479Z,12.30
2022-11-12T09:40:00.938Z,12.30
2022-11-12T09:42:27.527Z,12.30
2022-11-12T09:44:54.012Z,12.30
2022-11-12T09:47:20.500Z,12.30
2022-11-12T09:49:47.876Z,12.30
2022-11-12T09:52:14.533Z,12.30
2022-11-12T09:54:41.010Z,12.40
2022-11-12T09:57:07.534Z,12.50
2022-11-12T09:59:33.985Z,12.60
2022-11-12T10:02:00.490Z,12.80
2022-11-12T10:04:27.002Z,12.90
2022-11-12T10:06:53.517Z,13.00
2022-11-12T10:09:20.067Z,13.10
2022-11-12T10:12:05.482Z,13.20
2022-11-12T10:14:31.945Z,13.30
2022-11-12T10:16:58.414Z,13.40
2022-11-12T10:19:24.917Z,13.50
2022-11-12T10:21:51.414Z,13.60
2022-11-12T10:24:17.872Z,13.70
2022-11-12T10:26:44.329Z,13.80
2022-11-12T10:29:10.834Z,13.90
2022-11-12T10:31:37.357Z,14.10
2022-11-12T10:34:03.958Z,14.40
2022-11-12T10:36:30.550Z,14.80
2022-11-12T10:38:57.092Z,14.90
2022-11-12T10:41:23.671Z,14.90
2022-11-12T10:43:50.193Z,15.20
2022-11-12T10:46:16.674Z,15.60
2022-11-12T10:48:43.150Z,15.70
2022-11-12T10:51:09.635Z,16.00
2022-11-12T10:53:36.122Z,16.10
2022-11-12T10:56:02.617Z,16.20
2022-11-12T10:58:29.531Z,16.10
2022-11-12T11:00:56.292Z,16.20
2022-11-12T11:03:22.752Z,16.40
2022-11-12T11:05:49.211Z,16.30
2022-11-12T11:08:15.751Z,16.40
2022-11-12T11:10:42.211Z,16.40
2022-11-12T11:13:08.715Z,16.50
2022-11-12T11:15:35.269Z,16.60
2022-11-12T11:18:01.882Z,16.70
2022-11-12T11:20:28.836Z,16.80
2022-11-12T11:22:55.333Z,16.90
2022-11-12T11:25:21.835Z,17.00
2022-11-12T11:27:48.316Z,17.10
2022-11-12T11:30:15.672Z,17.10
2022-11-12T11:32:42.242Z,17.20
2022-11-12T11:35:08.717Z,17.30
2022-11-12T11:37:35.204Z,17.20
2022-11-12T11:40:02.151Z,17.30
2022-11-12T11:42:28.650Z,17.10
2022-11-12T11:44:55.160Z,17.00
2022-11-12T11:47:21.642Z,17.00
2022-11-12T11:49:48.180Z,17.00
2022-11-12T11:52:14.693Z,17.10
2022-11-12T11:54:41.420Z,17.20
2022-11-12T11:57:07.955Z,17.40
2022-11-12T11:59:34.455Z,17.40
2022-11-12T12:02:01.007Z,17.50
2022-11-12T12:04:27.491Z,17.40
2022-11-12T12:06:53.999Z,17.40
2022-11-12T12:09:20.549Z,17.40
2022-11-12T12:11:47.089Z,17.60
2022-11-12T12:14:13.578Z,17.80
2022-11-12T12:16:40.039Z,17.90
2022-11-12T12:19:06.557Z,17.70
2022-11-12T12:21:34.146Z,17.70
2022-11-12T12:24:00.657Z,17.70
2022-11-12T12:26:27.146Z,17.80
2022-11-12T12:28:53.670Z,17.90
2022-11-12T12:31:20.148Z,18.00
2022-11-12T12:33:46.683Z,18.10
2022-11-12T12:36:13.154Z,18.20
2022-11-12T12:38:39.728Z,18.20
2022-11-12T12:41:06.297Z,18.30
2022-11-12T12:43:32.800Z,18.40
2022-11-12T12:45:59.299Z,18.50
2022-11-12T12:48:26.197Z,18.50
2022-11-12T12:50:52.868Z,18.50
2022-11-12T12:53:19.437Z,18.60
2022-11-12T12:55:45.938Z,18.70
2022-11-12T12:58:12.444Z,18.70
2022-11-12T13:00:39.073Z,18.70
2022-11-12T13:03:05.678Z,18.70
2022-11-12T13:05:32.220Z,18.70
2022-11-12T13:07:58.713Z,18.50
2022-11-12T13:10:25.228Z,18.30
2022-11-12T13:12:51.764Z,18.00
2022-11-12T13:15:18.262Z,17.80
2022-11-12T13:17:44.847Z,17.60
2022-11-12T13:20:11.313Z,17.30
2022-11-12T13:22:37.840Z,17.20
2022-11-12T13:25:04.544Z,17.00
2022-11-12T13:27:31.038Z,16.90
2022-11-12T13:29:57.526Z,16.90
2022-11-12T13:32:24.044Z,16.80
2022-11-12T13:34:50.569Z,16.80
2022-11-12T13:37:17.091Z,16.70
2022-11-12T13:39:43.561Z,16.60
2022-11-12T13:42:28.914Z,16.60
2022-11-12T13:44:56.340Z,16.60
2022-11-12T13:47:24.725Z,16.60
2022-11-12T13:49:51.211Z,16.50
2022-11-12T13:52:17.718Z,16.50
2022-11-12T13:54:44.364Z,16.40
2022-11-12T13:57:14.308Z,16.50
2022-11-12T13:59:41.095Z,16.50
2022-11-12T14:02:07.576Z,16.50
2022-11-12T14:04:34.057Z,16.50
2022-11-12T14:07:00.605Z,16.40
2022-11-12T14:09:27.190Z,16.30
2022-11-12T14:11:53.808Z,16.40
2022-11-12T14:14:20.325Z,16.30
2022-11-12T14:16:46.787Z,16.20
2022-11-12T14:19:13.333Z,16.20
2022-11-12T14:21:39.834Z,16.10
2022-11-12T14:24:06.734Z,16.10
2022-11-12T14:26:33.201Z,16.10
2022-11-12T14:28:59.730Z,16.10
2022-11-12T14:31:26.315Z,16.00
2022-11-12T14:33:52.863Z,16.00
2022-11-12T14:36:19.382Z,16.00
2022-11-12T14:38:45.859Z,15.90
2022-11-12T14:41:12.321Z,15.90
2022-11-12T14:43:38.853Z,15.90
2022-11-12T14:46:05.422Z,15.90
2022-11-12T14:48:31.911Z,15.80
2022-11-12T14:50:58.411Z,15.80
2022-11-12T14:53:25.514Z,15.80
2022-11-12T14:55:52.076Z,15.70
2022-11-12T14:58:18.634Z,15.70
2022-11-12T15:00:45.218Z,15.70
2022-11-12T15:03:11.860Z,15.70
2022-11-12T15:05:43.797Z,15.60
2022-11-12T15:08:10.278Z,15.50
2022-11-12T15:10:36.865Z,15.40
2022-11-12T15:13:03.365Z,15.40
2022-11-12T15:15:29.837Z,15.30
2022-11-12T15:17:56.336Z,15.30
2022-11-12T15:20:22.839Z,15.30
2022-11-12T15:22:49.385Z,15.30
2022-11-12T15:25:15.950Z,15.30
2022-11-12T15:27:42.742Z,15.20
2022-11-12T15:30:09.221Z,15.10
2022-11-12T15:32:35.703Z,15.10
2022-11-12T15:35:05.160Z,15.00
2022-11-12T15:37:31.635Z,15.00
2022-11-12T15:39:58.134Z,14.90
2022-11-12T15:42:24.697Z,14.80
2022-11-12T15:44:57.017Z,14.70
2022-11-12T15:47:23.602Z,14.60
2022-11-12T15:49:50.097Z,14.50
2022-11-12T15:52:16.660Z,14.40
2022-11-12T15:54:43.134Z,14.40
2022-11-12T15:57:09.635Z,14.40
2022-11-12T15:59:36.186Z,14.30
2022-11-12T16:02:02.665Z,14.30
2022-11-12T16:04:29.162Z,14.30
2022-11-12T16:06:55.708Z,14.20
2022-11-12T16:09:22.288Z,14.10
2022-11-12T16:11:50.255Z,14.00
2022-11-12T16:14:18.911Z,13.90
2022-11-12T16:16:47.311Z,13.80
2022-11-12T16:19:14.768Z,13.70
2022-11-12T16:21:41.252Z,13.60
2022-11-12T16:24:07.778Z,13.60
2022-11-12T16:26:34.317Z,13.60
2022-11-12T16:29:00.857Z,13.50
2022-11-12T16:31:27.342Z,13.50
2022-11-12T16:33:53.843Z,13.50
2022-11-12T16:36:20.380Z,13.40
2022-11-12T16:38:47.048Z,13.30
2022-11-12T16:41:13.557Z,13.20
2022-11-12T16:43:40.092Z,13.20
2022-11-12T16:46:06.594Z,13.20
2022-11-12T16:48:33.188Z,13.10
2022-11-12T16:51:00.465Z,13.10
2022-11-12T16:53:27.205Z,13.00
2022-11-12T16:55:53.941Z,12.90
2022-11-12T16:58:20.549Z,12.70
2022-11-12T17:00:47.174Z,12.60
2022-11-12T17:03:14.043Z,12.60
2022-11-12T17:05:40.634Z,12.50
2022-11-12T17:08:07.132Z,12.50
2022-11-12T17:10:33.616Z,12.40
2022-11-12T17:13:00.239Z,12.30
2022-11-12T17:15:26.727Z,12.30
2022-11-12T17:17:53.292Z,12.20
2022-11-12T17:20:19.828Z,12.10
2022-11-12T17:22:46.320Z,12.10
2022-11-12T17:25:12.835Z,12.00
2022-11-12T17:27:39.336Z,11.90
2022-11-12T17:30:05.826Z,11.90
2022-11-12T17:32:32.318Z,11.80
2022-11-12T17:34:58.823Z,11.60
2022-11-12T17:37:25.421Z,11.60
2022-11-12T17:39:51.978Z,11.50
2022-11-12T17:42:19.246Z,11.50
2022-11-12T17:44:46.350Z,11.40
2022-11-12T17:47:12.841Z,11.40
2022-11-12T17:49:39.351Z,11.40
2022-11-12T17:52:05.828Z,11.50
2022-11-12T17:54:32.305Z,11.50
2022-11-12T17:56:58.805Z,11.60
2022-11-12T17:59:25.360Z,11.60
2022-11-12T18:01:51.963Z,11.70
2022-11-12T18:04:18.472Z,11.70
2022-11-12T18:06:45.039Z,11.70
2022-11-12T18:09:11.573Z,11.70
2022-11-12T18:11:38.088Z,11.70
2022-11-12T18:14:04.602Z,11.70
2022-11-12T18:16:31.114Z,11.70
2022-11-12T18:18:57.649Z,11.70
2022-11-12T18:21:24.152Z,11.60
2022-11-12T18:23:50.620Z,11.60
2022-11-12T18:26:18.290Z,11.60
2022-11-12T18:28:44.772Z,11.60
2022-11-12T18:31:11.268Z,11.50
2022-11-12T18:33:37.961Z,11.50
2022-11-12T18:36:04.460Z,11.50
2022-11-12T18:38:37.016Z,11.40
2022-11-12T18:41:03.595Z,11.40
2022-11-12T18:43:30.369Z,11.40
2022-11-12T18:46:01.263Z,11.40
2022-11-12T18:48:28.185Z,11.40
2022-11-12T18:50:54.723Z,11.50
2022-11-12T18:53:21.215Z,11.40
2022-11-12T18:55:47.832Z,11.40
2022-11-12T18:58:14.323Z,11.40
2022-11-12T19:00:40.811Z,11.50
2022-11-12T19:03:07.522Z,11.40
2022-11-12T19:05:34.203Z,11.40
2022-11-12T19:08:00.882Z,11.40
2022-11-12T19:10:27.473Z,11.40
2022-11-12T19:12:54.035Z,11.40
2022-11-12T19:15:25.526Z,11.40
2022-11-12T19:17:53.351Z,11.40
2022-11-12T19:20:19.858Z,11.30
2022-11-12T19:22:46.361Z,11.30
2022-11-12T19:25:12.922Z,11.20
2022-11-12T19:27:39.496Z,11.20
2022-11-12T19:30:06.832Z,11.20
2022-11-12T19:32:33.419Z,11.20
2022-11-12T19:34:59.943Z,11.20
2022-11-12T19:37:33.503Z,11.20
2022-11-12T19:40:00.674Z,11.20
2022-11-12T19:42:27.213Z,11.30
2022-11-12T19:44:53.757Z,11.30
2022-11-12T19:47:20.277Z,11.30
2022-11-12T19:49:46.737Z,11.30
2022-11-12T19:52:13.314Z,11.30
2022-11-12T19:54:39.858Z,11.40
2022-11-12T19:57:06.360Z,11.40
2022-11-12T19:59:32.902Z,11.60
2022-11-12T20:01:59.434Z,11.70
2022-11-12T20:04:26.000Z,11.80
2022-11-12T20:06:52.551Z,11.90
2022-11-12T20:09:19.163Z,12.00
2022-11-12T20:11:45.680Z,12.00
2022-11-12T20:14:12.352Z,12.10
2022-11-12T20:16:39.516Z,12.10
2022-11-12T20:19:06.079Z,12.20
2022-11-12T20:21:32.581Z,12.20
2022-11-12T20:23:59.221Z,12.30
2022-11-12T20:26:26.755Z,12.30
2022-11-12T20:28:53.585Z,12.40
2022-11-12T20:31:20.790Z,12.40
2022-11-12T20:33:47.601Z,12.40
2022-11-12T20:36:14.135Z,12.40
2022-11-12T20:38:40.707Z,12.40
2022-11-12T20:41:07.658Z,12.40
2022-11-12T20:43:34.245Z,12.40
2022-11-12T20:46:01.211Z,12.40
2022-11-12T20:48:27.989Z,12.40
2022-11-12T20:51:21.617Z,12.40
2022-11-12T20:53:41.771Z,12.40
2022-11-12T20:56:08.642Z,12.40
2022-11-12T20:58:35.141Z,12.40
2022-11-12T21:01:01.932Z,12.40
2022-11-12T21:03:28.681Z,12.40
2022-11-12T21:05:55.267Z,12.40
2022-11-12T21:08:21.790Z,12.40
2022-11-12T21:10:48.337Z,12.40
2022-11-12T21:13:15.927Z,12.40
2022-11-12T21:15:42.379Z,12.40
2022-11-12T21:18:08.948Z,12.40
2022-11-12T21:20:35.437Z,12.30
2022-11-12T21:23:01.895Z,12.30
2022-11-12T21:25:28.426Z,12.30
2022-11-12T21:27:55.043Z,12.30
2022-11-12T21:30:21.561Z,12.30
2022-11-12T21:32:48.361Z,12.20
2022-11-12T21:35:15.115Z,12.20
2022-11-12T21:37:41.856Z,12.20
2022-11-12T21:40:08.372Z,12.20
2022-11-12T21:42:34.951Z,12.20
2022-11-12T21:45:01.460Z,12.20
2022-11-12T21:47:28.877Z,12.10
2022-11-12T21:49:55.375Z,12.20
2022-11-12T21:52:21.848Z,12.20
2022-11-12T21:54:48.413Z,12.20
2022-11-12T21:57:18.636Z,12.20
2022-11-12T21:59:45.455Z,12.20
2022-11-12T22:02:11.964Z,12.20
2022-11-12T22:04:38.530Z,12.20
2022-11-12T22:07:05.046Z,12.20
2022-11-12T22:09:31.574Z,12.10
2022-11-12T22:11:58.079Z,12.20
2022-11-12T22:14:24.599Z,12.10
2022-11-12T22:16:51.153Z,12.10
2022-11-12T22:19:19.279Z,12.00
2022-11-12T22:21:45.770Z,12.10
2022-11-12T22:24:12.366Z,12.00
2022-11-12T22:26:38.854Z,12.00
2022-11-12T22:29:05.701Z,12.10
2022-11-12T22:31:32.309Z,12.10
2022-11-12T22:33:58.826Z,12.00
2022-11-12T22:36:25.482Z,12.00
2022-11-12T22:38:52.024Z,12.00
2022-11-12T22:41:18.519Z,12.10
2022-11-12T22:43:45.033Z,12.10
2022-11-12T22:46:11.528Z,12.00
2022-11-12T22:48:38.027Z,12.00
2022-11-12T22:51:04.639Z,12.10
2022-11-12T22:53:31.260Z,12.10
2022-11-12T22:55:57.784Z,12.10
2022-11-12T22:58:24.420Z,12.00
2022-11-12T23:00:51.049Z,11.90
2022-11-12T23:03:17.536Z,11.90
2022-11-12T23:05:44.025Z,11.80
2022-11-12T23:08:10.592Z,11.70
2022-11-12T23:10:40.396Z,11.60
2022-11-12T23:13:09.524Z,11.60
2022-11-12T23:15:36.010Z,11.50
2022-11-12T23:18:02.549Z,11.50
2022-11-12T23:20:29.111Z,11.40
2022-11-12T23:22:55.602Z,11.40
2022-11-12T23:25:22.237Z,11.30
2022-11-12T23:27:48.741Z,11.30
2022-11-12T23:30:15.271Z,11.20
2022-11-12T23:32:41.782Z,11.20
2022-11-12T23:35:08.312Z,11.10
2022-11-12T23:37:34.782Z,11.10
2022-11-12T23:40:01.323Z,11.00
2022-11-12T23:42:27.846Z,11.00
2022-11-12T23:44:54.412Z,11.00
2022-11-12T23:47:20.905Z,10.90
2022-11-12T23:49:47.381Z,10.90
2022-11-12T23:52:13.850Z,10.80
2022-11-12T23:54:40.323Z,10.80
2022-11-12T23:57:06.869Z,10.80
2022-11-12T23:59:33.347Z,10.80
